Observation data for Tulia on 04/23/2019      Previous  Date  Next       Current Mesonet Observations  Soil Data  Daily Summary Page  Observations in Plain Language
KTIS 230500Z 04011KT 11/10 A3008 RMK A01 T01130099  RH  094%=      5-min Rain = 0
KTIS 230505Z 03010KT 11/10 A3008 RMK A01 T01130099  RH  094%=      5-min Rain = 0
KTIS 230510Z 03009KT 11/10 A3009 RMK A01 T01140100  RH  094%=      5-min Rain = 0
KTIS 230515Z 04009KT 11/10 A3009 RMK A01 T01140100  RH  094%=      5-min Rain = 0
KTIS 230520Z 04010KT 11/10 A301 RMK A01 T01140099  RH  094%=      5-min Rain = 0
KTIS 230525Z 04009KT 11/10 A301 RMK A01 T01140099  RH  094%=      5-min Rain = 0
KTIS 230530Z 03008KT 11/10 A301 RMK A01 T01140099  RH  094%=      5-min Rain = 0
KTIS 230535Z 03009KT 11/10 A301 RMK A01 T01130099  RH  094%=      5-min Rain = 0
KTIS 230540Z 03010KT 11/10 A301 RMK A01 T01130099  RH  094%=      5-min Rain = 0
KTIS 230545Z 03010KT 11/10 A3009 RMK A01 T01130098  RH  094%=      5-min Rain = 0
KTIS 230550Z 03011KT 11/10 A3009 RMK A01 T01120097  RH  093%=      5-min Rain = 0
KTIS 230555Z 03011KT 11/10 A3009 RMK A01 T01120097  RH  093%=      5-min Rain = 0
KTIS 230600Z 03011KT 11/10 A3008 RMK A01 T01120097  RH  093%=      5-min Rain = 0.01
KTIS 230605Z 03010KT 11/10 A3008 RMK A01 T01110097  RH  094%=      5-min Rain = 0.01
KTIS 230610Z 03010KT 11/10 A3008 RMK A01 T01110097  RH  094%=      5-min Rain = 0
KTIS 230615Z 03011G16KT 11/10 A3008 RMK A01 T01110098  RH  094%=      5-min Rain = 0
KTIS 230620Z 02010KT 11/10 A3008 RMK A01 T01110098  RH  095%=      5-min Rain = 0.01
KTIS 230625Z 02011KT 11/10 A3008 RMK A01 T01110098  RH  095%=      5-min Rain = 0
KTIS 230630Z 01011KT 11/10 A3008 RMK A01 T01110099  RH  095%=      5-min Rain = 0
KTIS 230635Z 01010G15KT 11/10 A3007 RMK A01 T01110099  RH  095%=      5-min Rain = 0
KTIS 230640Z 02010G15KT 11/10 A3008 RMK A01 T01110099  RH  095%=      5-min Rain = 0
KTIS 230645Z 03010KT 11/10 A3008 RMK A01 T01120100  RH  095%=      5-min Rain = 0
KTIS 230650Z 03008G13KT 11/10 A3008 RMK A01 T01120100  RH  095%=      5-min Rain = 0
KTIS 230655Z 03010KT 11/10 A3008 RMK A01 T01120100  RH  095%=      5-min Rain = 0
KTIS 230700Z 03010G15KT 11/10 A3007 RMK A01 T01120100  RH  095%=      5-min Rain = 0
KTIS 230705Z 03009KT 11/10 A3008 RMK A01 T01120100  RH  095%=      5-min Rain = 0
KTIS 230710Z 03007KT 11/10 A3008 RMK A01 T01120100  RH  095%=      5-min Rain = 0
KTIS 230715Z 03008KT 11/10 A3008 RMK A01 T01120100  RH  095%=      5-min Rain = 0
KTIS 230720Z 02007KT 11/10 A3008 RMK A01 T01120100  RH  095%=      5-min Rain = 0
KTIS 230725Z 02009KT 11/10 A3007 RMK A01 T01120100  RH  095%=      5-min Rain = 0
KTIS 230730Z 03008KT 11/10 A3007 RMK A01 T01120100  RH  095%=      5-min Rain = 0
KTIS 230735Z 01006KT 11/10 A3008 RMK A01 T01130100  RH  095%=      5-min Rain = 0
KTIS 230740Z 00006KT 11/10 A3008 RMK A01 T01130101  RH  095%=      5-min Rain = 0
KTIS 230745Z 01005KT 11/10 A3008 RMK A01 T01130100  RH  095%=      5-min Rain = 0.01
KTIS 230750Z 02006KT 11/10 A3008 RMK A01 T01130101  RH  095%=      5-min Rain = 0
KTIS 230755Z 04007G12KT 11/10 A3007 RMK A01 T01130101  RH  095%=      5-min Rain = 0.01
KTIS 230800Z 04011KT 11/10 A3006 RMK A01 T01130101  RH  095%=      5-min Rain = 0.01
KTIS 230805Z 04013KT 11/10 A3005 RMK A01 T01130100  RH  095%=      5-min Rain = 0.03
KTIS 230810Z 04012KT 11/10 A3005 RMK A01 T01120101  RH  096%=      5-min Rain = 0.02
KTIS 230815Z 04011KT 11/10 A3005 RMK A01 T01120101  RH  096%=      5-min Rain = 0.01
KTIS 230820Z 03011KT 11/10 A3005 RMK A01 T01120101  RH  096%=      5-min Rain = 0
KTIS 230825Z 02010G15KT 11/10 A3004 RMK A01 T01120101  RH  096%=      5-min Rain = 0.01
KTIS 230830Z 02009KT 11/10 A3004 RMK A01 T01120102  RH  096%=      5-min Rain = 0
KTIS 230835Z 01008KT 11/10 A3004 RMK A01 T01120102  RH  097%=      5-min Rain = 0
KTIS 230840Z 01008KT 11/10 A3005 RMK A01 T01120102  RH  097%=      5-min Rain = 0
KTIS 230845Z 01007KT 11/10 A3005 RMK A01 T01120102  RH  097%=      5-min Rain = 0
KTIS 230850Z 01006KT 11/10 A3005 RMK A01 T01130103  RH  097%=      5-min Rain = 0
KTIS 230855Z 01007KT 11/10 A3005 RMK A01 T01130103  RH  097%=      5-min Rain = 0
KTIS 230900Z 01008KT 11/10 A3005 RMK A01 T01130103  RH  097%=      5-min Rain = 0
KTIS 230905Z 00007KT 11/10 A3005 RMK A01 T01140103  RH  097%=      5-min Rain = 0
KTIS 230910Z 35006KT 11/10 A3006 RMK A01 T01140103  RH  096%=      5-min Rain = 0.02
KTIS 230915Z 36005KT 11/10 A3006 RMK A01 T01140103  RH  096%=      5-min Rain = 0.02
KTIS 230920Z 00006KT 11/10 A3006 RMK A01 T01140103  RH  096%=      5-min Rain = 0.03
KTIS 230925Z 00006KT 11/10 A3006 RMK A01 T01130103  RH  096%=      5-min Rain = 0.03
KTIS 230930Z 02006KT 11/10 A3006 RMK A01 T01130103  RH  097%=      5-min Rain = 0.02
KTIS 230935Z 02007KT 11/10 A3006 RMK A01 T01130103  RH  097%=      5-min Rain = 0.03
KTIS 230940Z 01007KT 11/10 A3005 RMK A01 T01130103  RH  097%=      5-min Rain = 0.02
KTIS 230945Z 02007KT 11/10 A3005 RMK A01 T01120103  RH  097%=      5-min Rain = 0.01
KTIS 230950Z 02008KT 11/10 A3005 RMK A01 T01120103  RH  097%=      5-min Rain = 0.02
KTIS 230955Z 02008KT 11/10 A3005 RMK A01 T01120103  RH  097%=      5-min Rain = 0.01
KTIS 231000Z 02008KT 11/10 A3005 RMK A01 T01120103  RH  097%=      5-min Rain = 0.02
KTIS 231005Z 02009KT 11/10 A3005 RMK A01 T01120103  RH  097%=      5-min Rain = 0.03
KTIS 231010Z 01009KT 11/10 A3004 RMK A01 T01120103  RH  097%=      5-min Rain = 0.02
KTIS 231015Z 01011KT 11/10 A3003 RMK A01 T01120103  RH  097%=      5-min Rain = 0.02
KTIS 231020Z 00013KT 11/10 A3003 RMK A01 T01110102  RH  097%=      5-min Rain = 0.01
KTIS 231025Z 36013KT 11/10 A3003 RMK A01 T01110103  RH  098%=      5-min Rain = 0
KTIS 231030Z 34012KT 11/10 A3003 RMK A01 T01110103  RH  098%=      5-min Rain = 0.01
KTIS 231035Z 33012KT 11/10 A3004 RMK A01 T01110103  RH  098%=      5-min Rain = 0
KTIS 231040Z 33011KT 11/10 A3005 RMK A01 T01110103  RH  098%=      5-min Rain = 0
KTIS 231045Z 32009KT 11/10 A3006 RMK A01 T01110103  RH  098%=      5-min Rain = 0
KTIS 231050Z 31009KT 11/10 A3006 RMK A01 T01110102  RH  098%=      5-min Rain = 0.01
KTIS 231055Z 32007KT 11/10 A3007 RMK A01 T01110102  RH  098%=      5-min Rain = 0.01
KTIS 231100Z 32008KT 11/10 A3008 RMK A01 T01120103  RH  098%=      5-min Rain = 0.01
KTIS 231105Z 32008KT 11/10 A3008 RMK A01 T01110103  RH  098%=      5-min Rain = 0.02
KTIS 231110Z 32008KT 11/10 A3008 RMK A01 T01110102  RH  097%=      5-min Rain = 0.01
KTIS 231115Z 32006KT 11/10 A3009 RMK A01 T01120103  RH  097%=      5-min Rain = 0.02
KTIS 231120Z 31006KT 11/10 A3009 RMK A01 T01110102  RH  097%=      5-min Rain = 0.03
KTIS 231125Z 31006KT 11/10 A3009 RMK A01 T01110101  RH  097%=      5-min Rain = 0.04
KTIS 231130Z 34007KT 11/10 A3008 RMK A01 T01100101  RH  097%=      5-min Rain = 0.06
KTIS 231135Z 01009KT 11/10 A3006 RMK A01 T01100101  RH  098%=      5-min Rain = 0.01
KTIS 231140Z 01007KT 11/10 A3006 RMK A01 T01100102  RH  098%=      5-min Rain = 0.02
KTIS 231145Z 02009KT 11/10 A3006 RMK A01 T01100102  RH  098%=      5-min Rain = 0.01
KTIS 231150Z 01008KT 11/10 A3005 RMK A01 T01110102  RH  098%=      5-min Rain = 0
KTIS 231155Z 36011KT 11/10 A3005 RMK A01 T01110103  RH  098%=      5-min Rain = 0
KTIS 231200Z 34014KT 11/10 A3005 RMK A01 T01110103  RH  098%=      5-min Rain = 0
KTIS 231205Z 33013KT 11/10 A3006 RMK A01 T01110103  RH  098%=      5-min Rain = 0
KTIS 231210Z 33013KT 11/10 A3007 RMK A01 T01110103  RH  098%=      5-min Rain = 0
KTIS 231215Z 33012KT 11/10 A3007 RMK A01 T01120104  RH  098%=      5-min Rain = 0
KTIS 231220Z 33011KT 11/10 A3008 RMK A01 T01120104  RH  098%=      5-min Rain = 0
KTIS 231225Z 34010KT 11/10 A3009 RMK A01 T01120104  RH  098%=      5-min Rain = 0
KTIS 231230Z 33010KT 11/10 A301 RMK A01 T01120104  RH  098%=      5-min Rain = 0
KTIS 231235Z 33010KT 11/10 A301 RMK A01 T01130104  RH  098%=      5-min Rain = 0
KTIS 231240Z 34009KT 11/11 A301 RMK A01 T01130105  RH  098%=      5-min Rain = 0
KTIS 231245Z 35010KT 11/11 A3009 RMK A01 T01130105  RH  098%=      5-min Rain = 0
KTIS 231250Z 35010KT 11/11 A3009 RMK A01 T01130105  RH  098%=      5-min Rain = 0
KTIS 231255Z 35012KT 11/11 A301 RMK A01 T01130105  RH  098%=      5-min Rain = 0
KTIS 231300Z 34012KT 11/10 A301 RMK A01 T01130104  RH  097%=      5-min Rain = 0
KTIS 231305Z 34012KT 11/10 A301 RMK A01 T01130104  RH  097%=      5-min Rain = 0
KTIS 231310Z 34013KT 11/11 A301 RMK A01 T01140105  RH  097%=      5-min Rain = 0
KTIS 231315Z 35013KT 12/11 A3009 RMK A01 T01160106  RH  097%=      5-min Rain = 0
KTIS 231320Z 35011KT 12/11 A3009 RMK A01 T01160106  RH  097%=      5-min Rain = 0
KTIS 231325Z 36011G16KT 12/11 A3009 RMK A01 T01160106  RH  097%=      5-min Rain = 0
KTIS 231330Z 01012KT 12/11 A3009 RMK A01 T01160106  RH  096%=      5-min Rain = 0
KTIS 231335Z 01012G17KT 12/11 A301 RMK A01 T01170106  RH  096%=      5-min Rain = 0
KTIS 231340Z 01012KT 12/11 A301 RMK A01 T01170106  RH  096%=      5-min Rain = 0
KTIS 231345Z 01010KT 12/11 A301 RMK A01 T01170106  RH  096%=      5-min Rain = 0
KTIS 231350Z 01012G18KT 12/10 A301 RMK A01 T01150104  RH  096%=      5-min Rain = 0
KTIS 231355Z 02013G21KT 11/10 A3009 RMK A01 T01130102  RH  096%=      5-min Rain = 0
KTIS 231400Z 02015G21KT 11/10 A3008 RMK A01 T01130101  RH  096%=      5-min Rain = 0
KTIS 231405Z 02013G19KT 11/10 A3008 RMK A01 T01120101  RH  096%=      5-min Rain = 0
KTIS 231410Z 03014G19KT 11/10 A3008 RMK A01 T01130101  RH  096%=      5-min Rain = 0
KTIS 231415Z 03015G21KT 11/10 A3007 RMK A01 T01130101  RH  095%=      5-min Rain = 0
KTIS 231420Z 03015KT 11/10 A3007 RMK A01 T01140101  RH  095%=      5-min Rain = 0
KTIS 231425Z 03014G21KT 12/10 A3007 RMK A01 T01150101  RH  094%=      5-min Rain = 0
KTIS 231430Z 03013G20KT 12/10 A3007 RMK A01 T01160101  RH  094%=      5-min Rain = 0
KTIS 231435Z 03012G19KT 12/10 A3008 RMK A01 T01150100  RH  093%=      5-min Rain = 0
KTIS 231440Z 03012KT 12/10 A3009 RMK A01 T01150098  RH  093%=      5-min Rain = 0
KTIS 231445Z 03013KT 11/10 A3009 RMK A01 T01140098  RH  093%=      5-min Rain = 0
KTIS 231450Z 03013KT 11/10 A3009 RMK A01 T01140098  RH  093%=      5-min Rain = 0
KTIS 231455Z 03013G18KT 11/10 A301 RMK A01 T01140097  RH  092%=      5-min Rain = 0
KTIS 231500Z 03012KT 11/10 A301 RMK A01 T01140097  RH  092%=      5-min Rain = 0
KTIS 231505Z 02012G19KT 11/10 A301 RMK A01 T01140097  RH  092%=      5-min Rain = 0
KTIS 231510Z 02013G18KT 11/10 A301 RMK A01 T01130096  RH  092%=      5-min Rain = 0
KTIS 231515Z 02012KT 11/10 A3011 RMK A01 T01130096  RH  092%=      5-min Rain = 0
KTIS 231520Z 02011KT 11/10 A3011 RMK A01 T01130097  RH  093%=      5-min Rain = 0
KTIS 231525Z 03011G16KT 11/10 A3012 RMK A01 T01140097  RH  093%=      5-min Rain = 0
KTIS 231530Z 02013KT 11/10 A3012 RMK A01 T01130096  RH  092%=      5-min Rain = 0
KTIS 231535Z 03013KT 11/10 A3012 RMK A01 T01140096  RH  092%=      5-min Rain = 0
KTIS 231540Z 03011G18KT 11/10 A3012 RMK A01 T01140096  RH  092%=      5-min Rain = 0
KTIS 231545Z 02013G18KT 11/09 A3012 RMK A01 T01120094  RH  091%=      5-min Rain = 0
KTIS 231550Z 02013G19KT 11/09 A3012 RMK A01 T01100093  RH  092%=      5-min Rain = 0
KTIS 231555Z 03015G20KT 11/09 A3012 RMK A01 T01080091  RH  092%=      5-min Rain = 0
KTIS 231600Z 03013KT 11/09 A3012 RMK A01 T01070089  RH  091%=      5-min Rain = 0
KTIS 231605Z 02013G18KT 11/09 A3012 RMK A01 T01080089  RH  091%=      5-min Rain = 0
KTIS 231610Z 03013G18KT 11/09 A3012 RMK A01 T01080088  RH  090%=      5-min Rain = 0
KTIS 231615Z 03012KT 11/09 A3012 RMK A01 T01080088  RH  090%=      5-min Rain = 0
KTIS 231620Z 03013KT 11/09 A3012 RMK A01 T01090088  RH  090%=      5-min Rain = 0
KTIS 231625Z 03013G18KT 11/09 A3012 RMK A01 T01080088  RH  090%=      5-min Rain = 0
KTIS 231630Z 03012G18KT 11/09 A3012 RMK A01 T01080087  RH  090%=      5-min Rain = 0
KTIS 231635Z 04012KT 11/09 A3013 RMK A01 T01090088  RH  090%=      5-min Rain = 0
KTIS 231640Z 04013G19KT 11/09 A3012 RMK A01 T01100088  RH  089%=      5-min Rain = 0
KTIS 231645Z 03012G17KT 11/09 A3012 RMK A01 T01100088  RH  089%=      5-min Rain = 0
KTIS 231650Z 02012G17KT 11/09 A3012 RMK A01 T01090086  RH  088%=      5-min Rain = 0
KTIS 231655Z 03013G18KT 11/09 A3012 RMK A01 T01080086  RH  089%=      5-min Rain = 0
KTIS 231700Z 03013KT 11/09 A3012 RMK A01 T01080087  RH  090%=      5-min Rain = 0
KTIS 231705Z 03012G17KT 11/09 A3012 RMK A01 T01080088  RH  090%=      5-min Rain = 0
KTIS 231710Z 03013G19KT 11/09 A3011 RMK A01 T01070088  RH  090%=      5-min Rain = 0
KTIS 231715Z 04014G19KT 11/09 A3011 RMK A01 T01060087  RH  091%=      5-min Rain = 0
KTIS 231720Z 03014G19KT 11/09 A3011 RMK A01 T01060088  RH  091%=      5-min Rain = 0
KTIS 231725Z 03013G19KT 11/09 A3011 RMK A01 T01060088  RH  091%=      5-min Rain = 0
KTIS 231730Z 04014G19KT 11/09 A3011 RMK A01 T01060088  RH  091%=      5-min Rain = 0
KTIS 231735Z 04015G20KT 11/09 A301 RMK A01 T01060088  RH  091%=      5-min Rain = 0
KTIS 231740Z 04013KT 11/09 A301 RMK A01 T01080088  RH  090%=      5-min Rain = 0
KTIS 231745Z 04014G19KT 11/09 A301 RMK A01 T01090088  RH  090%=      5-min Rain = 0
KTIS 231750Z 04013KT 11/09 A301 RMK A01 T01100088  RH  089%=      5-min Rain = 0
KTIS 231755Z 03011G17KT 11/09 A3011 RMK A01 T01100088  RH  089%=      5-min Rain = 0
KTIS 231800Z 01011KT 11/09 A3011 RMK A01 T01100088  RH  089%=      5-min Rain = 0
KTIS 231805Z 02013KT 11/09 A3011 RMK A01 T01090087  RH  089%=      5-min Rain = 0
KTIS 231810Z 02010G17KT 11/09 A3011 RMK A01 T01090088  RH  090%=      5-min Rain = 0
KTIS 231815Z 02013KT 11/09 A3011 RMK A01 T01090087  RH  089%=      5-min Rain = 0
KTIS 231820Z 02012KT 11/09 A3011 RMK A01 T01090088  RH  089%=      5-min Rain = 0
KTIS 231825Z 03010KT 11/09 A3011 RMK A01 T01110089  RH  089%=      5-min Rain = 0
KTIS 231830Z 02011KT 11/09 A301 RMK A01 T01100089  RH  089%=      5-min Rain = 0
KTIS 231835Z 02012KT 11/09 A301 RMK A01 T01080088  RH  090%=      5-min Rain = 0
KTIS 231840Z 02011G16KT 11/09 A301 RMK A01 T01070088  RH  091%=      5-min Rain = 0
KTIS 231845Z 03011KT 11/09 A301 RMK A01 T01080088  RH  091%=      5-min Rain = 0
KTIS 231850Z 03011KT 11/09 A301 RMK A01 T01070088  RH  091%=      5-min Rain = 0
KTIS 231855Z 03012KT 11/09 A301 RMK A01 T01090087  RH  089%=      5-min Rain = 0
KTIS 231900Z 03010KT 11/09 A3009 RMK A01 T01130088  RH  087%=      5-min Rain = 0
KTIS 231905Z 02009KT 12/09 A3009 RMK A01 T01170090  RH  086%=      5-min Rain = 0
KTIS 231910Z 03010G15KT 12/09 A3009 RMK A01 T01180089  RH  085%=      5-min Rain = 0
KTIS 231915Z 02010KT 12/09 A3009 RMK A01 T01160087  RH  085%=      5-min Rain = 0
KTIS 231920Z 01011KT 12/09 A3009 RMK A01 T01150088  RH  086%=      5-min Rain = 0
KTIS 231925Z 01011KT 12/09 A3009 RMK A01 T01150087  RH  085%=      5-min Rain = 0
KTIS 231930Z 02010G16KT 12/09 A3009 RMK A01 T01180089  RH  085%=      5-min Rain = 0
KTIS 231935Z 02011G16KT 12/09 A3009 RMK A01 T01170087  RH  084%=      5-min Rain = 0
KTIS 231940Z 02011KT 12/09 A3009 RMK A01 T01170087  RH  085%=      5-min Rain = 0
KTIS 231945Z 02011KT 12/09 A3009 RMK A01 T01160087  RH  085%=      5-min Rain = 0
KTIS 231950Z 02009KT 12/09 A301 RMK A01 T01160088  RH  086%=      5-min Rain = 0
KTIS 231955Z 01009KT 12/09 A301 RMK A01 T01160088  RH  085%=      5-min Rain = 0
KTIS 232000Z 01009KT 12/09 A301 RMK A01 T01150088  RH  086%=      5-min Rain = 0
KTIS 232005Z 36010KT 11/09 A301 RMK A01 T01140088  RH  087%=      5-min Rain = 0
KTIS 232010Z 36010KT 11/09 A301 RMK A01 T01130089  RH  088%=      5-min Rain = 0
KTIS 232015Z 00011KT 11/09 A3009 RMK A01 T01130088  RH  087%=      5-min Rain = 0
KTIS 232020Z 01009KT 11/09 A3009 RMK A01 T01130086  RH  086%=      5-min Rain = 0
KTIS 232025Z 36010KT 12/09 A3009 RMK A01 T01160087  RH  085%=      5-min Rain = 0
KTIS 232030Z 36010KT 12/09 A3009 RMK A01 T01190087  RH  083%=      5-min Rain = 0
KTIS 232035Z 02008KT 12/09 A3009 RMK A01 T01210087  RH  082%=      5-min Rain = 0
KTIS 232040Z 01008KT 12/08 A3009 RMK A01 T01210083  RH  080%=      5-min Rain = 0
KTIS 232045Z 02008KT 12/08 A3009 RMK A01 T01220084  RH  080%=      5-min Rain = 0
KTIS 232050Z 01008KT 12/08 A3009 RMK A01 T01230084  RH  079%=      5-min Rain = 0
KTIS 232055Z 00009KT 13/08 A3008 RMK A01 T01250083  RH  078%=      5-min Rain = 0
KTIS 232100Z 01008KT 13/08 A3008 RMK A01 T01250083  RH  077%=      5-min Rain = 0
KTIS 232105Z 01008KT 13/08 A3008 RMK A01 T01250082  RH  077%=      5-min Rain = 0
KTIS 232110Z 01007KT 13/08 A3008 RMK A01 T01260083  RH  077%=      5-min Rain = 0
KTIS 232115Z 00009KT 13/08 A3008 RMK A01 T01250083  RH  078%=      5-min Rain = 0
KTIS 232120Z 35009KT 13/08 A3008 RMK A01 T01260084  RH  078%=      5-min Rain = 0
KTIS 232125Z 36008KT 13/08 A3008 RMK A01 T01260083  RH  078%=      5-min Rain = 0
KTIS 232130Z 36007KT 13/08 A3008 RMK A01 T01260084  RH  078%=      5-min Rain = 0
KTIS 232135Z 01007KT 13/08 A3008 RMK A01 T01270084  RH  077%=      5-min Rain = 0
KTIS 232140Z 01007KT 13/08 A3008 RMK A01 T01280084  RH  077%=      5-min Rain = 0
KTIS 232145Z 01007KT 13/08 A3007 RMK A01 T01280084  RH  077%=      5-min Rain = 0
KTIS 232150Z 01007KT 13/08 A3007 RMK A01 T01280083  RH  076%=      5-min Rain = 0
KTIS 232155Z 01007KT 13/08 A3007 RMK A01 T01280082  RH  076%=      5-min Rain = 0
KTIS 232200Z 01008KT 13/08 A3007 RMK A01 T01280083  RH  076%=      5-min Rain = 0
KTIS 232205Z 01007KT 13/08 A3007 RMK A01 T01280081  RH  075%=      5-min Rain = 0
KTIS 232210Z 01005KT 13/08 A3007 RMK A01 T01290082  RH  075%=      5-min Rain = 0
KTIS 232215Z 02007KT 13/08 A3007 RMK A01 T01290082  RH  075%=      5-min Rain = 0
KTIS 232220Z 02007KT 13/08 A3007 RMK A01 T01310081  RH  074%=      5-min Rain = 0
KTIS 232225Z 02007KT 13/08 A3007 RMK A01 T01310078  RH  072%=      5-min Rain = 0
KTIS 232230Z 01008KT 13/08 A3007 RMK A01 T01320079  RH  072%=      5-min Rain = 0
KTIS 232235Z 02007KT 13/08 A3007 RMK A01 T01320078  RH  072%=      5-min Rain = 0
KTIS 232240Z 01007KT 13/08 A3007 RMK A01 T01330079  RH  072%=      5-min Rain = 0
KTIS 232245Z 00009KT 13/08 A3006 RMK A01 T01330078  RH  071%=      5-min Rain = 0
KTIS 232250Z 01008KT 13/08 A3006 RMK A01 T01330079  RH  071%=      5-min Rain = 0
KTIS 232255Z 01009KT 13/08 A3007 RMK A01 T01340077  RH  070%=      5-min Rain = 0
KTIS 232300Z 01007KT 14/08 A3006 RMK A01 T01350078  RH  071%=      5-min Rain = 0
KTIS 232305Z 36009KT 14/08 A3006 RMK A01 T01350078  RH  070%=      5-min Rain = 0
KTIS 232310Z 36010KT 14/08 A3006 RMK A01 T01350081  RH  072%=      5-min Rain = 0
KTIS 232315Z 00010KT 13/08 A3006 RMK A01 T01340078  RH  071%=      5-min Rain = 0
KTIS 232320Z 35010KT 13/08 A3006 RMK A01 T01340080  RH  072%=      5-min Rain = 0
KTIS 232325Z 00010KT 13/08 A3006 RMK A01 T01330079  RH  072%=      5-min Rain = 0
KTIS 232330Z 36009KT 13/08 A3006 RMK A01 T01330080  RH  072%=      5-min Rain = 0
KTIS 232335Z 36012KT 13/08 A3006 RMK A01 T01330078  RH  071%=      5-min Rain = 0
KTIS 232340Z 36010KT 13/08 A3006 RMK A01 T01330080  RH  072%=      5-min Rain = 0
KTIS 232345Z 00010KT 13/08 A3006 RMK A01 T01330078  RH  071%=      5-min Rain = 0
KTIS 232350Z 00011KT 13/08 A3006 RMK A01 T01330078  RH  071%=      5-min Rain = 0
KTIS 232355Z 01009KT 13/08 A3006 RMK A01 T01330079  RH  072%=      5-min Rain = 0
KTIS 240000Z 00009KT 13/08 A3006 RMK A01 T01320083  RH  074%=      5-min Rain = 0
KTIS 240005Z 00010KT 13/08 A3006 RMK A01 T01320080  RH  073%=      5-min Rain = 0
KTIS 240010Z 36011KT 13/08 A3006 RMK A01 T01300079  RH  073%=      5-min Rain = 0
KTIS 240015Z 36011KT 13/08 A3006 RMK A01 T01300077  RH  072%=      5-min Rain = 0
KTIS 240020Z 36011KT 13/08 A3006 RMK A01 T01290076  RH  072%=      5-min Rain = 0
KTIS 240025Z 36010KT 13/08 A3006 RMK A01 T01290077  RH  073%=      5-min Rain = 0
KTIS 240030Z 36011KT 13/08 A3006 RMK A01 T01280077  RH  073%=      5-min Rain = 0
KTIS 240035Z 00011KT 13/08 A3006 RMK A01 T01280078  RH  074%=      5-min Rain = 0
KTIS 240040Z 36010KT 13/08 A3006 RMK A01 T01270077  RH  074%=      5-min Rain = 0
KTIS 240045Z 36009KT 13/08 A3006 RMK A01 T01270079  RH  074%=      5-min Rain = 0
KTIS 240050Z 36010KT 13/08 A3006 RMK A01 T01270078  RH  074%=      5-min Rain = 0
KTIS 240055Z 36010KT 13/08 A3005 RMK A01 T01270076  RH  073%=      5-min Rain = 0
KTIS 240100Z 36010KT 13/08 A3005 RMK A01 T01260076  RH  073%=      5-min Rain = 0
KTIS 240105Z 36010KT 13/08 A3005 RMK A01 T01250076  RH  074%=      5-min Rain = 0
KTIS 240110Z 36010KT 12/08 A3004 RMK A01 T01240077  RH  075%=      5-min Rain = 0
KTIS 240115Z 35010KT 12/08 A3004 RMK A01 T01230080  RH  077%=      5-min Rain = 0
KTIS 240120Z 35010KT 12/08 A3004 RMK A01 T01220080  RH  078%=      5-min Rain = 0
KTIS 240125Z 35009KT 12/08 A3004 RMK A01 T01200080  RH  078%=      5-min Rain = 0
KTIS 240130Z 35009KT 12/08 A3004 RMK A01 T01180080  RH  079%=      5-min Rain = 0
KTIS 240135Z 35009KT 12/08 A3004 RMK A01 T01170079  RH  080%=      5-min Rain = 0
KTIS 240140Z 35009KT 12/08 A3004 RMK A01 T01160078  RH  080%=      5-min Rain = 0
KTIS 240145Z 35009KT 11/08 A3004 RMK A01 T01140078  RH  081%=      5-min Rain = 0
KTIS 240150Z 35008KT 11/08 A3004 RMK A01 T01120077  RH  081%=      5-min Rain = 0
KTIS 240155Z 36008KT 11/08 A3005 RMK A01 T01110077  RH  082%=      5-min Rain = 0
KTIS 240200Z 36008KT 11/08 A3005 RMK A01 T01100078  RH  083%=      5-min Rain = 0
KTIS 240205Z 00007KT 11/08 A3005 RMK A01 T01090078  RH  083%=      5-min Rain = 0
KTIS 240210Z 00007KT 11/08 A3005 RMK A01 T01080078  RH  084%=      5-min Rain = 0
KTIS 240215Z 00007KT 11/08 A3005 RMK A01 T01060077  RH  085%=      5-min Rain = 0
KTIS 240220Z 00007KT 10/08 A3005 RMK A01 T01030077  RH  086%=      5-min Rain = 0
KTIS 240225Z 00007KT 10/08 A3005 RMK A01 T01020077  RH  087%=      5-min Rain = 0
KTIS 240230Z 00007KT 10/08 A3005 RMK A01 T01020078  RH  087%=      5-min Rain = 0
KTIS 240235Z 36007KT 10/08 A3005 RMK A01 T01020077  RH  087%=      5-min Rain = 0
KTIS 240240Z 35008KT 10/08 A3004 RMK A01 T01010077  RH  087%=      5-min Rain = 0
KTIS 240245Z 35008KT 10/08 A3004 RMK A01 T01000076  RH  087%=      5-min Rain = 0
KTIS 240250Z 35008KT 10/08 A3004 RMK A01 T00990075  RH  087%=      5-min Rain = 0
KTIS 240255Z 34008KT 10/07 A3005 RMK A01 T00980073  RH  087%=      5-min Rain = 0
KTIS 240300Z 35007KT 10/07 A3005 RMK A01 T00960072  RH  087%=      5-min Rain = 0
KTIS 240305Z 35008KT 10/07 A3005 RMK A01 T00960072  RH  087%=      5-min Rain = 0
KTIS 240310Z 36008KT 10/07 A3005 RMK A01 T00970071  RH  086%=      5-min Rain = 0
KTIS 240315Z 01007KT 10/07 A3005 RMK A01 T00970069  RH  085%=      5-min Rain = 0
KTIS 240320Z 01006KT 10/07 A3005 RMK A01 T00990067  RH  083%=      5-min Rain = 0
KTIS 240325Z 01006KT 10/07 A3005 RMK A01 T00970067  RH  083%=      5-min Rain = 0
KTIS 240330Z 01006KT 10/07 A3006 RMK A01 T00960066  RH  084%=      5-min Rain = 0
KTIS 240335Z 02005KT 10/07 A3006 RMK A01 T00950065  RH  084%=      5-min Rain = 0
KTIS 240340Z 01005KT 09/07 A3007 RMK A01 T00940065  RH  084%=      5-min Rain = 0
KTIS 240345Z 00004KT 09/06 A3007 RMK A01 T00920063  RH  084%=      5-min Rain = 0
KTIS 240350Z 00005KT 09/06 A3006 RMK A01 T00860061  RH  086%=      5-min Rain = 0
KTIS 240355Z 00006KT 08/06 A3006 RMK A01 T00830060  RH  088%=      5-min Rain = 0
KTIS 240400Z 35006KT 08/06 A3005 RMK A01 T00800059  RH  089%=      5-min Rain = 0
KTIS 240405Z 35007KT 08/06 A3004 RMK A01 T00760055  RH  089%=      5-min Rain = 0
KTIS 240410Z 35008KT 08/06 A3004 RMK A01 T00750056  RH  090%=      5-min Rain = 0
KTIS 240415Z 35008KT 08/06 A3003 RMK A01 T00790060  RH  089%=      5-min Rain = 0
KTIS 240420Z 35007KT 08/06 A3004 RMK A01 T00790058  RH  088%=      5-min Rain = 0
KTIS 240425Z 01004KT 08/06 A3005 RMK A01 T00800058  RH  088%=      5-min Rain = 0
KTIS 240430Z 05004KT 08/06 A3006 RMK A01 T00830059  RH  087%=      5-min Rain = 0
KTIS 240435Z 06004KT 08/06 A3008 RMK A01 T00820058  RH  087%=      5-min Rain = 0
KTIS 240440Z 11005KT 08/06 A3009 RMK A01 T00800056  RH  087%=      5-min Rain = 0
KTIS 240445Z 12004KT 08/06 A3009 RMK A01 T00770056  RH  089%=      5-min Rain = 0
KTIS 240450Z 10002KT 08/06 A3009 RMK A01 T00770057  RH  089%=      5-min Rain = 0
KTIS 240455Z 10000KT 08/06 A3008 RMK A01 T00770057  RH  089%=      5-min Rain = 0

Page generated in 0.0396 seconds.